Date,TemperatureHighF,TemperatureAvgF,TemperatureLowF,DewpointHighF,DewpointAvgF,DewpointLowF,HumidityHigh,HumidityAvg,HumidityLow,PressureMaxIn,PressureMinIn,WindSpeedMaxMPH,WindSpeedAvgMPH,GustSpeedMaxMPH,PrecipitationSumIn
2013-1-1,43.0,39.7,31.3,13.3,4.4,-16.3,35,23,11,29.87,29.69,17,6,17,0.00
2013-1-2,38.7,30.0,25.2,-4.3,-14.6,-21.5,25,14,10,30.05,29.84,13,4,13,0.00
2013-1-3,47.7,30.1,23.5,1.3,-8.0,-19.8,36,20,10,30.06,29.87,14,4,14,0.00
2013-1-4,42.1,34.3,28.2,3.1,-5.4,-14.5,33,19,10,29.99,29.84,22,8,22,0.00
2013-1-5,49.3,35.8,27.3,3.6,-3.9,-14.8,33,19,10,30.17,29.90,17,4,17,0.00
2013-1-6,52.7,39.7,33.3,34.2,14.0,-6.0,89,43,10,30.11,29.84,15,3,15,0.11
2013-1-7,54.5,39.0,28.0,16.5,6.7,-12.5,48,30,10,30.27,29.92,15,2,15,0.00
2013-1-8,53.8,36.4,25.5,23.8,12.6,-4.3,66,43,10,30.30,29.78,14,2,14,0.00
2013-1-9,53.8,44.4,31.8,34.0,22.3,5.5,77,44,20,30.26,30.01,15,3,15,0.00
2013-1-10,57.7,45.2,36.7,57.3,11.6,-10.9,99,35,10,30.40,29.11,18,4,18,0.00
2013-1-11,50.0,45.2,37.2,46.7,27.8,8.0,99,54,24,30.39,29.92,9,3,9,0.56
2013-1-12,49.8,46.9,44.6,49.6,46.1,18.1,99,97,88,30.03,29.85,8,2,8,0.00
2013-1-13,51.1,46.3,42.3,49.0,44.7,41.0,99,94,71,30.02,29.86,13,2,13,0.00
2013-1-14,60.6,51.4,29.5,58.4,40.6,4.2,99,73,14,30.14,29.81,9,2,9,0.24
2013-1-15,41.2,39.7,37.6,36.7,22.9,-1.1,87,54,31,30.19,29.84,9,4,9,0.32
2013-1-16,43.2,38.8,36.5,41.9,36.1,25.7,96,90,62,30.06,29.64,13,4,13,0.63
2013-1-17,47.7,40.5,36.9,36.2,22.4,5.6,90,53,19,29.95,29.79,11,3,11,0.01
2013-1-18,38.7,32.5,24.3,22.4,-5.3,-24.4,54,22,10,30.37,29.84,17,4,17,0.00
2013-1-19,59.0,41.9,28.2,23.3,-1.0,-20.3,47,18,10,30.30,29.81,22,8,22,0.00
2013-1-20,61.0,46.3,33.3,60.8,29.2,-7.6,100,65,10,29.90,29.57,30,9,30,0.00
2013-1-21,36.0,31.3,25.7,35.8,18.7,-17.6,100,73,10,29.97,29.68,10,2,10,0.00
2013-1-22,29.8,21.2,14.5,13.9,-23.6,-32.3,60,14,10,30.10,29.70,25,8,25,0.00
2013-1-23,26.1,16.1,10.2,-14.1,-28.9,-35.1,29,12,10,30.14,30.04,17,6,17,0.00
2013-1-24,31.3,19.2,10.0,-10.3,-21.2,-30.0,35,17,10,30.29,29.99,16,6,16,0.00
2013-1-25,38.3,19.2,13.1,5.7,-14.6,-32.9,53,25,10,30.37,29.93,10,4,10,0.00
2013-1-26,15.6,15.1,12.7,2.2,0.5,-1.6,56,52,51,29.98,29.92,6,3,6,0.00
2013-1-27,40.8,20.2,15.3,23.4,1.1,-23.1,51,45,10,30.38,29.98,8,3,8,0.00
2013-1-28,36.5,30.9,20.8,33.3,13.6,-8.6,88,53,25,30.37,29.88,12,2,12,0.08
2013-1-29,60.8,43.6,35.1,40.6,32.5,16.7,90,69,20,30.00,29.87,10,3,10,0.00
2013-1-30,59.4,49.4,43.0,54.6,47.1,39.7,99,92,62,29.92,29.26,23,6,23,0.02
2013-1-31,59.2,46.0,30.6,58.9,30.2,-17.9,100,70,10,29.82,28.97,31,13,31,0.56
2013-2-1,36.0,29.6,23.9,6.6,-17.1,-24.9,38,12,10,30.12,29.69,23,8,23,0.00
2013-2-2,36.3,26.5,18.7,14.3,-15.7,-26.9,64,18,10,30.28,29.92,15,7,15,0.00
2013-2-3,42.4,28.0,21.9,18.8,11.1,3.5,73,51,20,29.92,29.65,9,2,9,0.02
2013-2-4,33.8,27.7,22.8,16.6,-7.3,-21.7,65,24,10,29.91,29.69,21,7,21,0.01
2013-2-5,36.3,33.1,27.5,30.9,24.6,11.7,86,71,51,29.84,29.74,8,2,8,0.05
2013-2-6,45.0,35.4,26.8,30.9,10.2,-12.0,86,45,10,30.22,29.76,16,5,16,0.00
2013-2-7,40.8,32.3,20.3,25.4,-1.6,-15.5,54,24,14,30.36,30.08,12,3,12,0.00
2013-2-8,42.8,38.9,30.2,40.2,33.8,8.6,94,83,55,30.26,29.44,44,11,44,1.31
2013-2-9,39.6,30.3,22.3,30.3,5.6,-21.5,99,50,10,30.19,29.58,23,7,23,0.09
2013-2-10,44.6,29.0,16.7,16.9,-3.2,-19.4,52,28,10,30.35,30.19,8,3,8,0.01
2013-2-11,54.5,45.1,33.3,53.9,40.8,17.1,99,86,51,30.21,29.50,18,4,18,0.33
2013-2-12,52.0,43.3,32.5,40.8,6.8,-9.5,85,28,10,29.83,29.59,25,8,25,0.01
2013-2-13,48.6,35.8,26.4,32.6,15.1,0.9,94,46,17,29.83,29.52,9,2,9,0.12
2013-2-14,52.5,38.7,32.4,37.8,27.4,2.8,95,70,15,29.89,29.55,11,3,11,0.17
2013-2-15,58.8,43.5,33.1,33.1,25.1,15.0,89,53,19,29.90,29.61,14,5,14,0.00
2013-2-16,44.6,37.9,32.5,25.5,15.9,-3.0,61,42,22,29.99,29.57,16,6,16,0.00
2013-2-17,38.1,30.1,21.0,2.8,-18.1,-27.2,29,11,10,29.88,29.52,29,11,29,0.01
2013-2-18,41.4,28.5,18.7,32.5,-12.6,-29.0,100,25,10,30.14,29.88,22,8,22,0.01
2013-2-19,50.2,40.5,28.9,45.6,22.1,-18.7,95,53,11,30.08,29.54,20,6,20,0.22
2013-2-20,39.6,32.5,26.4,17.2,-12.5,-22.9,40,15,10,29.88,29.60,25,9,25,0.00
2013-2-21,40.8,30.8,24.3,40.6,-7.3,-23.1,100,26,10,30.13,29.85,23,7,23,0.00
2013-2-22,40.1,33.5,24.3,25.5,9.4,-35.5,56,37,23,30.25,28.73,11,3,11,0.00
2013-2-23,45.0,41.9,29.3,42.8,37.5,25.5,99,85,56,30.12,29.62,18,6,18,0.56
2013-2-24,54.3,41.3,33.3,42.0,21.6,-5.0,99,56,10,29.84,29.59,22,6,22,0.01
2013-2-25,50.4,38.8,30.0,14.1,6.5,-7.5,41,27,10,30.21,29.85,11,4,11,0.00
2013-2-26,49.1,38.8,27.3,36.5,19.3,-21.9,82,47,5,30.14,29.48,21,6,21,0.30
2013-2-27,59.4,48.0,41.5,54.9,35.9,17.6,99,69,22,29.68,29.34,21,8,21,0.46
2013-2-28,55.6,44.9,37.9,28.9,16.9,1.1,57,35,11,29.50,29.40,14,4,14,0.01
2013-3-1,53.1,40.8,33.6,22.1,8.2,-8.3,56,30,10,29.88,29.47,12,5,12,0.00
2013-3-2,49.3,38.5,31.5,6.4,-1.6,-56.1,32,20,1,31.00,29.55,14,5,14,0.00
2013-3-3,44.2,35.4,30.7,44.2,5.8,-15.3,100,38,10,29.63,29.53,15,6,15,0.00
2013-3-4,47.5,36.6,28.0,47.5,10.0,-15.1,100,46,10,29.77,29.62,21,8,21,0.00
2013-3-5,53.2,39.5,29.8,22.5,1.8,-12.0,54,24,10,29.88,29.77,11,4,11,0.00
2013-3-6,41.7,40.1,36.5,28.4,22.8,19.5,61,50,42,29.82,29.58,37,16,37,0.28
2013-3-7,43.0,37.1,34.2,25.3,22.6,16.4,68,56,35,29.93,29.71,21,7,21,0.22
2013-3-8,42.3,36.4,32.4,27.8,23.7,13.8,75,61,34,30.02,29.85,15,4,15,0.27
2013-3-9,63.5,45.5,32.9,21.8,6.0,-11.1,52,24,10,30.18,30.00,13,4,13,0.00
2013-3-10,46.6,38.4,28.6,27.4,20.9,15.9,68,50,31,30.25,29.61,10,3,11,0.00
2013-3-11,56.5,44.3,32.4,42.3,31.2,1.7,81,61,36,30.18,29.94,13,2,13,0.00
2013-3-12,55.2,49.7,46.4,54.9,43.6,32.3,99,80,59,29.96,29.54,20,6,20,0.80
2013-3-13,58.5,46.1,33.8,58.1,20.2,-6.5,100,45,11,29.83,29.66,20,4,20,0.00
2013-3-14,47.3,37.9,30.6,31.5,11.1,-16.1,54,38,10,29.83,29.46,24,7,24,0.00
2013-3-15,52.3,40.1,29.5,20.2,1.8,-20.4,54,25,10,29.86,29.56,20,6,20,0.00
2013-3-16,41.7,37.2,33.6,26.3,10.1,-12.3,71,39,10,29.77,29.62,9,3,9,0.08
2013-3-17,45.3,36.1,29.1,24.3,1.1,-16.0,70,31,10,30.15,29.77,13,3,13,0.09
2013-3-18,42.6,36.7,30.2,36.7,6.5,-18.2,86,34,10,30.24,29.65,23,8,23,0.56
2013-3-19,50.4,42.6,39.6,40.0,28.7,-12.3,95,67,10,29.79,29.55,15,5,15,0.43
2013-3-20,53.6,42.2,32.0,-1.9,-8.7,-16.6,19,11,10,29.77,29.65,18,6,18,0.00
2013-3-21,40.8,34.4,30.2,15.6,2.1,-17.6,49,28,10,29.67,29.51,15,5,15,0.02
2013-3-22,47.1,36.3,27.1,38.7,3.4,-18.0,75,33,10,29.86,29.62,21,7,21,0.00
2013-3-23,53.6,40.6,29.3,0.0,-6.1,-14.9,27,15,10,29.80,29.68,21,6,21,0.00
2013-3-24,50.7,39.7,29.7,24.7,-4.6,-16.9,45,16,10,30.25,29.55,12,4,12,0.00
2013-3-25,40.1,36.9,33.3,27.2,21.2,6.1,76,56,25,29.56,29.28,33,8,33,0.63
2013-3-26,58.1,43.5,32.9,37.3,13.4,-6.9,87,41,10,29.73,29.44,12,4,12,0.14
2013-3-27,58.5,45.4,32.0,15.6,5.6,-7.7,40,22,10,30.14,29.72,15,3,15,0.00
2013-3-28,56.1,45.0,34.9,15.3,3.6,-6.4,44,21,10,29.97,29.83,13,4,13,0.00
2013-3-29,63.0,47.7,35.8,13.6,4.3,-13.6,39,19,10,30.01,29.85,14,3,14,0.00
2013-3-30,63.9,47.0,35.8,24.4,10.2,-2.8,48,26,10,30.04,29.95,18,2,18,0.00
2013-3-31,58.5,46.4,34.3,46.9,21.1,-0.4,89,41,14,30.03,29.54,16,4,16,0.45
2013-4-1,70.0,53.7,40.8,70.0,29.7,-7.8,100,53,10,30.23,29.47,20,6,20,0.01
2013-4-2,50.0,41.0,28.9,48.0,17.8,-20.4,100,59,10,29.95,29.76,23,6,24,0.00
2013-4-3,53.1,42.0,32.2,51.0,40.4,30.6,94,94,94,30.15,29.95,22,6,22,0.00
2013-4-4,55.0,41.4,29.1,35.1,9.9,-20.8,94,38,10,30.26,29.52,15,5,15,0.00
2013-4-5,61.0,48.5,37.9,34.0,11.0,-7.8,63,28,10,29.97,29.54,13,4,13,0.21
2013-4-6,51.6,43.2,36.0,12.8,-5.6,-15.5,34,13,10,30.19,29.85,15,5,15,0.00
2013-4-7,58.1,48.4,36.1,33.2,18.7,2.2,51,33,11,30.18,29.88,20,6,20,0.00
2013-4-8,70.5,58.0,49.8,39.5,23.5,4.1,61,31,10,29.94,29.62,12,4,12,0.00
2013-4-9,89.4,70.1,52.3,42.3,28.2,7.0,62,28,10,29.85,29.77,21,5,21,0.00
2013-4-10,70.3,61.5,51.4,70.3,28.0,8.3,100,31,10,29.81,29.63,18,4,18,0.25
2013-4-11,60.3,54.4,46.6,57.8,44.4,33.7,92,70,47,29.86,29.62,18,3,18,0.05
2013-4-12,46.6,44.7,43.3,44.4,41.5,33.7,98,89,61,29.84,29.52,21,8,21,0.78
2013-4-13,63.5,49.5,41.5,47.9,31.0,-0.1,98,58,10,29.98,29.57,12,4,12,0.07
2013-4-14,67.3,54.3,43.0,45.8,19.8,0.0,81,36,10,30.06,29.82,20,4,20,0.00
2013-4-15,58.5,50.0,45.5,33.2,17.4,1.3,57,29,10,30.23,30.06,13,4,13,0.00
2013-4-16,67.3,57.0,47.5,43.7,34.0,23.6,61,44,22,30.22,30.00,21,7,21,0.00
2013-4-17,67.8,59.3,51.1,47.3,27.8,6.2,64,35,10,30.14,29.96,12,4,12,0.00
2013-4-18,60.6,53.1,46.2,48.8,31.9,-20.4,79,46,20,30.24,29.95,9,3,9,0.00
2013-4-19,71.2,62.4,53.1,62.5,52.3,39.5,99,73,34,29.95,29.54,22,8,22,0.01
2013-4-20,65.7,55.4,48.7,56.6,17.5,-5.3,82,33,10,30.14,29.53,17,6,17,0.37
2013-4-21,54.0,46.0,37.4,12.3,-3.9,-13.9,33,13,10,30.48,30.14,14,5,14,0.00
2013-4-22,58.1,46.3,40.3,26.6,15.2,1.1,47,30,13,30.49,29.91,18,9,18,0.01
2013-4-23,53.2,46.0,42.6,34.3,27.0,20.5,68,48,39,30.32,29.83,16,8,16,0.01
2013-4-24,68.4,52.8,39.6,44.6,29.5,5.4,73,46,10,29.96,29.71,20,3,20,0.00
2013-4-25,68.0,55.4,45.7,44.1,17.0,-1.5,68,28,10,30.13,29.75,20,5,20,0.04
2013-4-26,72.3,55.0,40.1,26.3,16.0,2.2,56,26,11,30.25,30.12,10,3,11,0.00
2013-4-27,68.0,56.1,44.8,22.5,9.3,-1.9,40,17,10,30.29,30.16,10,4,11,0.00
2013-4-28,71.2,56.4,41.4,37.7,15.1,-0.5,52,24,10,30.19,30.08,16,3,16,0.00
2013-4-29,55.4,53.4,51.1,40.0,36.7,9.9,64,53,41,30.14,30.02,8,4,8,0.19
2013-4-30,64.8,55.6,46.0,39.4,29.3,17.4,63,39,18,30.20,30.03,14,2,14,0.00
2013-5-1,61.9,52.4,44.4,35.1,28.1,12.9,62,42,16,30.33,30.17,14,3,14,0.00
2013-5-2,68.2,55.8,44.1,36.9,22.0,2.9,67,33,10,30.32,30.19,9,1,9,0.00
2013-5-3,60.8,53.5,47.3,36.3,23.8,2.4,56,35,10,30.32,30.21,15,6,15,0.00
2013-5-4,61.9,53.0,43.2,38.6,26.5,13.1,68,39,15,30.22,30.12,10,4,10,0.00
2013-5-5,59.7,50.5,46.8,32.8,23.2,11.6,54,35,16,30.15,30.08,15,4,15,0.00
2013-5-6,59.4,52.0,48.7,42.0,34.7,26.9,74,53,30,30.12,30.02,13,4,13,0.00
2013-5-7,60.8,54.3,50.0,53.6,45.0,39.3,97,72,49,30.02,29.93,13,4,13,0.05
2013-5-8,72.3,60.1,55.6,61.2,50.1,38.0,99,73,36,29.94,29.81,17,5,17,0.81
2013-5-9,75.4,61.7,55.4,58.9,44.7,24.1,92,59,17,29.85,29.75,10,1,10,0.25
2013-5-10,85.3,67.0,55.4,55.8,39.5,17.4,87,45,10,29.86,29.74,15,4,15,0.00
2013-5-11,77.2,64.6,60.8,57.9,52.4,40.3,83,66,29,29.76,29.56,16,3,16,0.32
2013-5-12,75.4,63.6,51.8,62.2,25.3,-3.2,92,35,10,29.81,29.52,21,6,21,0.06
2013-5-13,64.4,53.2,41.0,46.6,4.4,-7.8,100,15,10,29.99,29.81,17,5,17,0.00
2013-5-14,67.1,53.4,40.5,23.2,11.0,-5.0,39,21,10,30.04,29.90,13,4,13,0.00
2013-5-15,69.1,60.2,48.9,45.2,30.8,-4.8,55,34,10,29.94,29.55,15,4,15,0.00
2013-5-16,80.1,67.2,56.1,56.3,34.4,10.1,71,38,10,29.70,29.55,10,2,11,0.04
2013-5-17,81.0,67.7,53.4,80.6,48.2,2.8,100,62,10,30.05,29.67,12,3,12,0.00
2013-5-18,67.8,58.8,52.7,44.1,38.7,30.6,61,48,27,30.17,30.05,9,2,9,0.05
2013-5-19,60.3,57.4,55.6,60.0,52.1,43.7,99,83,62,30.15,30.00,13,3,13,0.47
2013-5-20,78.4,66.8,58.6,72.2,57.0,42.6,99,76,30,30.02,29.82,10,2,10,0.02
2013-5-21,90.3,75.5,64.9,68.1,53.3,32.1,95,54,13,29.83,29.69,13,4,13,0.00
2013-5-22,87.3,73.6,65.8,64.9,55.2,39.6,84,56,21,29.77,29.68,13,3,13,0.00
2013-5-23,84.2,73.1,64.2,60.2,52.5,37.7,73,51,21,29.76,29.62,21,7,21,0.00
2013-5-24,75.0,59.3,45.9,62.1,46.6,30.1,85,64,40,29.81,29.54,15,4,15,0.22
2013-5-25,62.4,52.9,45.0,37.2,19.6,-1.6,68,35,10,29.87,29.76,21,8,21,0.07
2013-5-26,75.0,60.6,43.7,24.8,9.4,-2.1,47,14,10,30.09,29.85,20,6,20,0.00
2013-5-27,78.8,63.6,41.9,78.6,48.6,4.6,100,70,10,30.11,29.99,13,3,13,0.00
2013-5-28,78.1,60.4,50.0,77.7,41.8,9.6,100,56,10,30.08,29.90,13,2,13,0.45
2013-5-29,89.1,72.3,57.9,68.4,49.6,23.9,98,54,10,29.97,29.87,9,1,9,0.00
2013-5-30,99.7,81.3,71.2,88.6,47.4,25.8,71,35,10,29.99,29.92,8,4,8,0.47
2013-5-31,100.0,81.8,69.1,60.3,42.9,16.1,65,31,10,29.99,29.86,14,4,14,0.00
2013-6-1,96.1,80.8,60.3,55.1,42.6,24.4,55,31,10,30.14,29.78,17,6,17,0.00
2013-6-2,92.5,77.7,70.3,63.6,48.2,23.6,76,42,10,29.80,29.66,17,6,17,0.48
2013-6-3,80.6,71.5,66.0,67.9,59.6,48.5,89,68,36,29.72,29.64,12,3,12,0.40
2013-6-4,79.7,68.7,55.6,61.4,26.5,9.3,80,28,10,29.95,29.72,12,2,12,0.00
2013-6-5,75.0,65.1,52.7,48.6,28.0,12.2,68,29,10,30.06,29.95,11,2,11,0.00
2013-6-6,75.6,65.1,59.0,63.2,49.2,37.5,88,59,26,29.99,29.67,15,4,15,0.04
2013-6-7,69.1,64.5,50.5,68.8,62.6,38.8,99,94,64,29.84,29.39,13,3,13,2.81
2013-6-8,82.6,71.3,58.8,67.0,44.0,18.7,99,50,10,29.91,29.36,15,5,15,0.27
2013-6-9,86.2,73.6,60.8,55.4,36.6,16.1,76,35,10,30.03,29.91,13,2,13,0.00
2013-6-10,73.2,67.1,64.4,69.3,58.2,42.6,99,77,38,30.03,29.67,13,3,13,1.83
2013-6-11,89.4,77.2,68.7,72.7,43.1,19.0,99,45,10,29.67,29.50,16,6,16,1.22
2013-6-12,88.7,75.5,64.6,36.8,25.6,12.9,35,17,10,29.71,29.58,20,6,20,0.00
2013-6-13,78.3,68.4,60.8,64.0,42.1,20.2,83,43,16,29.93,29.24,15,4,15,0.71
2013-6-14,78.3,63.3,55.4,55.8,36.6,10.1,85,46,10,29.75,29.31,14,4,14,0.05
2013-6-15,89.6,73.7,58.8,46.1,27.8,9.9,60,25,10,29.87,29.74,13,4,13,0.00
2013-6-16,90.7,74.7,60.6,47.1,31.0,17.3,55,25,10,29.86,29.65,18,4,18,0.00
2013-6-17,94.3,77.9,65.5,94.3,51.5,22.7,100,50,10,29.78,29.68,13,3,13,0.00
2013-6-18,83.5,70.1,64.2,73.5,47.9,19.2,89,53,10,29.89,29.65,14,2,14,0.78
2013-6-19,79.7,70.0,60.6,62.3,28.8,7.2,89,33,10,30.02,29.69,15,4,15,0.00
2013-6-20,86.4,70.9,55.9,50.5,24.7,9.9,64,23,10,30.13,30.02,15,4,15,0.00
2013-6-21,88.5,72.0,56.7,46.5,24.9,11.0,57,21,10,30.18,30.11,15,3,15,0.00
2013-6-22,86.7,67.2,57.7,56.6,39.9,19.5,71,45,10,30.13,30.11,6,1,6,0.00
2013-6-23,90.0,76.9,71.8,90.0,59.3,21.3,100,63,10,30.03,29.91,6,1,12,0.01
2013-6-24,100.2,87.7,73.2,99.9,46.7,18.1,100,35,10,29.93,29.83,17,5,17,0.01
2013-6-25,99.9,84.2,70.0,54.9,33.9,19.0,58,21,10,29.85,29.69,14,5,14,0.00
2013-6-26,99.1,83.4,72.9,59.9,35.0,18.5,62,21,10,29.73,29.63,17,5,17,0.08
2013-6-27,95.5,79.4,72.0,71.4,49.6,23.9,84,45,10,29.67,29.45,15,4,15,0.02
2013-6-28,93.9,80.5,72.3,61.5,45.4,22.7,64,36,10,29.46,29.34,14,5,14,0.06
2013-6-29,91.2,76.7,68.4,61.9,47.0,22.4,74,41,10,29.83,29.35,13,4,13,0.05
2013-6-30,89.1,75.4,68.4,67.2,54.8,34.7,80,52,15,29.77,29.56,12,3,12,0.05
2013-7-1,90.0,75.8,71.4,67.0,60.0,36.9,78,61,17,29.91,29.73,16,4,16,0.09
2013-7-2,85.3,77.1,71.8,67.4,57.9,44.1,80,54,24,30.05,29.90,12,4,12,0.00
2013-7-3,92.1,78.7,72.1,67.0,53.6,25.4,74,46,10,30.12,30.03,10,3,11,1.51
2013-7-4,91.2,81.2,73.6,68.8,53.7,28.4,83,44,12,30.12,30.03,14,4,14,0.00
2013-7-5,97.5,84.5,72.9,62.7,42.7,25.4,66,29,10,30.08,29.96,10,4,10,0.00
2013-7-6,101.1,88.4,63.3,90.0,64.2,23.3,71,51,10,30.12,29.88,13,5,13,0.00
2013-7-7,100.4,88.5,76.5,56.0,37.0,23.9,49,20,10,29.94,29.79,13,5,13,0.00
2013-7-8,96.1,81.4,73.0,53.3,38.9,22.0,48,26,10,29.92,29.85,23,4,23,0.25
2013-7-9,98.1,81.0,70.0,60.9,44.4,22.8,68,34,10,29.93,29.83,12,3,12,0.13
2013-7-10,96.6,82.7,69.8,72.8,48.4,24.7,91,38,10,29.89,29.68,17,4,17,0.31
2013-7-11,92.1,80.0,75.7,62.2,50.4,23.9,60,39,11,29.76,29.64,9,3,9,0.08
2013-7-12,77.4,73.3,69.6,66.0,51.5,33.1,83,51,22,29.91,29.45,15,5,15,0.15
2013-7-13,88.9,78.3,70.9,79.6,61.0,44.8,99,61,23,30.14,29.91,12,3,12,0.00
2013-7-14,97.2,83.1,73.9,68.6,50.0,26.8,79,39,10,30.20,29.68,12,4,12,0.00
2013-7-15,103.1,88.2,75.4,61.2,43.5,25.4,61,27,10,30.12,29.76,11,4,11,0.00
2013-7-16,100.4,87.2,76.5,55.9,39.1,19.5,45,22,10,30.04,29.97,10,2,10,0.00
2013-7-17,100.8,86.6,75.0,99.9,63.8,23.8,100,58,10,30.04,29.93,9,3,9,0.00
2013-7-18,105.3,90.1,78.3,46.4,34.8,25.0,32,16,10,30.08,29.81,9,2,9,0.00
2013-7-19,105.1,91.8,81.0,57.2,40.5,29.1,44,19,10,29.84,29.67,13,6,13,0.00
2013-7-20,100.6,88.4,79.3,49.8,36.0,24.0,34,17,10,29.93,29.58,17,5,17,0.06
2013-7-21,91.6,79.7,74.5,57.4,43.3,22.5,52,30,10,29.80,29.68,11,2,11,0.01
2013-7-22,87.6,78.9,75.2,68.5,63.3,44.1,77,60,33,29.87,29.64,10,2,11,0.02
2013-7-23,93.4,81.9,72.7,73.0,52.5,26.9,87,43,10,29.65,29.42,10,3,10,0.56
2013-7-24,94.6,81.3,72.3,57.2,33.1,12.9,54,23,10,29.75,29.47,10,3,11,0.00
2013-7-25,72.7,67.5,65.3,43.3,28.4,10.3,44,25,10,29.88,29.75,16,6,16,0.00
2013-7-26,87.1,73.5,65.5,48.8,34.1,16.6,47,28,10,29.91,29.82,10,4,11,0.00
2013-7-27,90.9,75.8,63.5,54.4,38.5,18.8,61,33,10,29.91,29.81,13,3,13,0.00
2013-7-28,83.1,74.1,65.3,73.2,54.0,40.2,89,53,23,29.84,29.77,13,3,13,0.22
2013-7-29,92.5,77.8,67.3,75.4,39.8,10.8,99,39,10,29.96,29.79,10,2,10,0.22
2013-7-30,90.3,76.2,61.3,37.9,26.9,12.5,41,18,10,30.02,29.95,10,2,11,0.00
2013-7-31,91.8,75.4,61.7,46.4,29.7,15.5,55,23,10,30.01,29.90,9,2,9,0.00
2013-8-1,99.0,72.2,69.6,66.1,46.8,27.6,88,45,18,29.95,29.67,14,3,14,0.26
2013-8-2,92.8,79.6,68.5,70.2,41.3,17.3,99,41,10,29.82,29.65,13,3,13,0.00
2013-8-3,82.9,73.7,68.9,54.5,43.6,18.4,53,37,10,29.78,29.72,10,3,10,0.04
2013-8-4,90.0,75.9,62.8,66.1,31.3,9.5,80,29,10,29.89,29.69,13,3,13,0.00
2013-8-5,86.9,72.8,60.4,34.8,21.1,8.8,29,15,10,29.91,29.79,10,3,10,0.00
2013-8-6,88.2,73.9,59.0,79.3,45.1,14.4,82,44,10,29.98,29.54,12,3,12,0.00
2013-8-7,82.8,74.5,69.8,52.2,38.0,18.4,48,29,10,30.00,29.92,13,4,13,0.00
2013-8-8,87.3,76.1,71.2,75.4,60.4,38.4,99,63,19,29.93,29.87,13,4,13,0.53
2013-8-9,87.6,79.2,72.7,71.8,63.4,52.2,86,61,32,29.88,29.68,12,4,12,0.06
2013-8-10,90.9,79.9,72.3,71.7,43.7,16.6,91,40,10,29.90,29.72,13,2,13,0.00
2013-8-11,85.3,74.6,63.7,56.5,34.4,14.7,60,30,10,29.98,29.89,12,3,12,0.00
2013-8-12,89.4,74.6,67.5,61.5,51.8,24.2,69,47,10,29.89,29.78,8,1,8,0.07
2013-8-13,77.5,72.8,68.9,75.3,65.6,22.6,99,80,47,29.97,29.57,8,2,8,0.44
2013-8-14,72.0,71.1,71.1,63.0,57.2,56.9,74,62,61,29.61,29.58,6,0,6,0.00
2013-8-15,84.9,73.3,63.5,84.9,60.8,9.6,100,72,10,30.00,29.60,11,2,11,0.00
2013-8-16,91.6,71.1,56.8,91.6,53.3,9.7,100,64,10,30.06,29.67,10,2,10,0.00
2013-8-17,84.6,70.6,58.8,50.9,29.3,11.2,61,28,10,30.13,30.06,8,1,8,0.00
2013-8-18,79.2,69.9,63.3,51.6,33.5,9.2,61,32,10,30.11,29.98,10,2,11,0.01
2013-8-19,87.1,71.8,60.4,46.9,32.0,15.9,58,28,10,30.00,29.90,8,2,9,0.00
2013-8-20,93.4,77.3,64.8,63.6,40.0,19.2,79,34,10,29.99,29.90,13,4,13,0.00
2013-8-21,96.8,80.2,68.9,58.3,41.8,22.4,65,32,10,30.03,29.92,10,3,10,0.00
2013-8-22,88.7,77.2,71.8,54.8,44.4,20.3,53,34,10,29.93,29.74,10,3,10,0.01
2013-8-23,87.1,75.4,66.7,58.6,34.2,13.5,66,29,10,29.93,29.73,8,2,8,0.00
2013-8-24,80.1,70.3,50.0,80.1,43.6,13.0,100,48,10,30.21,29.72,11,3,11,0.22
2013-8-25,89.1,72.1,58.5,63.5,31.6,11.9,93,32,12,30.26,30.11,10,3,11,0.00
2013-8-26,91.4,76.1,65.1,91.4,52.4,8.2,100,58,10,30.12,29.79,16,6,16,0.00
2013-8-27,93.6,79.8,71.1,81.1,35.5,18.7,100,25,10,29.78,29.69,13,4,13,0.02
2013-8-28,87.3,76.1,68.4,60.1,45.1,20.3,65,38,10,29.75,29.69,6,1,6,0.00
2013-8-29,80.8,73.2,69.8,52.2,45.0,23.1,50,39,12,29.89,29.84,5,1,10,0.01
2013-8-30,89.2,80.6,70.5,51.4,31.3,-19.2,48,21,2,30.24,29.74,13,5,13,0.00
2013-8-31,72.5,72.2,72.0,53.9,52.9,51.2,52,51,48,29.76,29.73,12,5,12,0.00
2013-9-1,90.9,79.8,73.6,73.2,52.3,23.8,93,50,10,29.71,29.65,10,4,11,0.05
2013-9-2,82.2,75.6,70.9,76.2,67.9,51.0,99,79,36,29.66,29.57,8,1,8,0.04
2013-9-3,90.3,77.8,69.8,78.0,55.7,21.2,99,62,10,29.64,29.57,12,2,12,0.00
2013-9-4,88.3,73.9,61.7,88.3,56.9,10.7,100,66,10,29.85,29.80,3,1,9,0.00
2013-9-5,90.0,75.2,59.0,90.0,75.2,59.0,100,100,100,29.99,29.82,12,3,12,0.00
2013-9-6,75.6,64.3,52.7,71.6,23.3,-0.2,100,34,10,30.11,29.99,10,3,10,0.00
2013-9-7,84.7,66.8,50.2,77.0,32.7,9.3,100,40,10,30.00,29.78,12,2,12,0.00
2013-9-8,91.2,75.1,64.4,68.7,31.9,13.0,100,29,10,29.95,29.67,12,2,13,0.12
2013-9-9,78.3,71.0,63.5,78.1,60.0,9.5,100,81,11,30.13,29.96,12,5,12,0.12
2013-9-10,91.0,77.6,69.4,52.2,34.5,19.8,45,24,10,30.04,29.91,15,4,15,0.00
2013-9-11,97.9,82.9,73.2,94.1,49.9,22.0,100,41,10,29.99,29.85,15,4,15,0.00
2013-9-12,94.5,79.8,72.5,54.5,39.5,-30.3,52,28,1,31.75,29.56,17,4,17,0.00
2013-9-13,84.0,72.8,60.3,83.7,64.7,3.9,100,87,10,29.74,29.52,13,4,13,0.25
2013-9-14,76.3,62.5,52.2,72.9,26.7,1.8,100,36,10,29.99,29.70,13,4,13,1.02
2013-9-15,80.2,62.9,46.8,33.0,19.9,5.6,48,22,10,30.08,29.95,10,4,11,0.00
2013-9-16,75.4,64.2,58.6,41.3,30.4,9.9,44,30,10,30.06,29.90,10,2,10,0.02
2013-9-17,67.5,57.5,48.2,67.5,35.1,-4.3,100,60,10,30.28,30.06,14,4,14,0.01
2013-9-18,77.7,59.7,46.4,63.9,22.6,3.5,100,31,10,30.21,30.06,11,2,11,0.00
2013-9-19,82.8,63.3,47.5,59.9,35.6,8.2,72,39,10,30.06,29.83,13,3,13,0.12
2013-9-20,85.1,66.2,52.5,51.2,29.3,11.8,72,30,10,29.96,29.86,13,3,13,0.00
2013-9-21,81.3,67.5,53.4,70.9,44.1,14.4,89,48,10,29.88,29.53,16,2,16,0.09
2013-9-22,78.8,67.4,53.6,66.0,29.5,-0.9,95,39,10,29.76,29.50,15,4,15,0.15
2013-9-23,73.9,59.3,46.9,21.2,8.3,-2.5,35,14,10,29.89,29.76,13,3,13,0.00
2013-9-24,77.7,59.8,45.7,30.2,18.5,2.8,48,23,10,29.92,29.74,13,2,13,0.00
2013-9-25,75.6,61.6,48.6,68.5,23.1,1.8,100,30,10,29.81,29.73,9,2,9,0.00
2013-9-26,88.7,61.4,51.6,58.5,33.5,10.8,88,42,10,29.95,29.77,15,2,15,0.00
2013-9-27,72.9,63.8,53.1,46.3,18.8,5.9,61,22,10,30.11,29.94,12,3,12,0.00
2013-9-28,77.0,66.4,58.8,36.3,17.6,5.9,41,17,10,30.17,30.08,12,4,12,0.00
2013-9-29,74.1,63.1,53.2,50.6,22.8,4.9,70,27,10,30.08,29.92,9,2,9,0.00
2013-9-30,75.9,61.9,51.3,53.5,27.1,8.2,76,34,10,29.93,29.84,10,2,11,0.00
2013-10-1,86.9,67.4,54.3,45.1,31.9,10.7,69,35,10,29.87,29.76,8,2,8,0.00
2013-10-2,89.8,72.9,59.2,46.7,30.1,12.4,62,27,10,29.87,29.77,14,3,14,0.00
2013-10-3,83.8,70.3,59.7,58.3,25.9,9.0,67,25,10,29.97,29.87,7,2,7,0.00
2013-10-4,92.7,72.4,60.1,92.1,47.3,15.7,100,50,10,29.93,29.83,8,2,8,0.00
2013-10-5,73.2,68.4,65.3,55.8,46.1,31.8,70,46,23,29.95,29.86,9,2,9,0.00
2013-10-6,73.4,68.3,65.7,69.5,63.1,55.6,99,84,64,29.94,29.87,8,2,8,0.00
2013-10-7,81.0,69.8,61.0,71.5,55.8,38.9,99,66,24,29.87,29.66,26,6,26,0.09
2013-10-8,71.6,61.6,52.3,39.3,16.7,4.3,45,21,10,30.15,29.85,10,2,11,0.09
2013-10-9,64.0,61.6,60.4,64.0,47.3,3.5,100,77,10,30.21,30.10,23,10,23,0.00
2013-10-10,73.8,61.2,57.6,53.3,40.4,5.7,72,49,11,30.11,29.87,23,10,23,0.26
2013-10-11,65.1,63.4,62.2,60.4,51.5,45.3,92,66,50,29.90,29.81,23,10,23,0.24
2013-10-12,71.4,64.3,61.7,45.5,31.3,7.9,52,32,10,30.09,29.88,21,10,21,0.02
2013-10-13,72.7,61.4,58.6,39.3,20.0,4.1,43,22,10,30.22,30.04,21,10,21,0.01
2013-10-14,68.5,59.1,50.9,34.7,17.3,3.2,53,22,10,30.20,30.11,9,3,9,0.00
2013-10-15,72.3,59.2,48.2,61.0,39.0,5.7,86,52,10,30.12,29.85,10,3,11,0.00
2013-10-16,88.0,63.0,60.4,46.6,42.5,32.7,58,48,27,29.95,29.78,8,2,8,0.00
2013-10-17,76.5,65.3,59.9,56.7,47.6,25.8,82,56,17,29.78,29.56,10,4,11,0.00
2013-10-18,73.8,62.9,51.3,54.0,14.6,-3.4,66,18,10,29.85,29.56,17,5,17,0.01
2013-10-19,70.0,56.2,43.3,44.7,18.8,3.0,58,28,10,29.85,29.62,10,2,11,0.01
2013-10-20,69.6,59.6,47.7,68.7,41.3,-1.8,97,62,10,29.91,29.62,15,5,15,0.00
2013-10-21,74.3,61.7,42.6,73.8,50.5,0.2,100,77,10,30.02,29.78,14,3,14,0.00
2013-10-22,77.2,57.9,46.9,48.1,17.9,-1.2,66,27,10,29.85,29.62,8,1,15,0.00
2013-10-23,54.5,50.0,42.6,54.5,8.3,-7.6,100,21,10,29.67,29.45,15,3,15,0.12
2013-10-24,60.3,46.1,37.9,15.4,2.3,-12.0,38,19,10,29.90,29.63,18,5,18,0.00
2013-10-25,61.0,45.6,37.2,3.6,-7.0,-14.2,16,11,10,30.11,29.90,15,4,15,0.00
2013-10-26,62.8,47.2,33.4,10.0,2.0,-7.8,35,17,11,30.11,29.77,17,5,17,0.00
2013-10-27,65.7,51.4,41.2,44.7,29.0,-3.4,47,44,11,30.07,29.74,15,4,15,0.15
2013-10-28,69.3,49.2,34.3,34.7,14.2,-13.7,47,25,10,30.20,29.99,14,2,14,0.28
2013-10-29,70.3,52.6,43.7,16.3,1.8,-8.8,29,13,10,30.25,30.05,13,4,13,0.14
2013-10-30,59.4,50.0,41.4,41.2,30.6,13.5,60,47,29,30.21,30.05,4,0,4,0.01
2013-10-31,71.1,60.8,52.0,55.4,41.7,24.8,81,52,19,30.08,29.69,14,4,14,0.01
2013-11-1,71.1,63.5,57.6,57.2,43.8,26.0,83,51,21,29.69,29.44,20,5,20,0.21
2013-11-2,72.2,59.3,51.6,62.9,29.9,-0.9,99,47,10,29.64,29.47,2,0,6,0.00
2013-11-3,56.1,47.5,34.5,16.6,-2.1,-16.6,29,13,10,30.29,29.63,3,1,14,0.00
2013-11-4,52.2,42.5,33.1,52.2,23.9,-17.7,100,67,10,30.49,30.29,13,4,13,0.00
2013-11-5,62.6,52.5,45.7,62.6,45.9,-4.6,100,88,11,30.49,30.34,10,3,10,0.00
2013-11-6,67.8,53.6,37.8,47.9,21.1,2.3,68,34,10,30.34,29.94,12,3,12,0.00
2013-11-7,65.1,56.5,39.9,58.1,36.7,1.4,87,51,18,29.94,29.62,15,4,15,0.06
2013-11-8,56.3,44.1,35.2,10.2,-6.2,-16.0,29,12,10,30.10,29.81,17,5,17,0.13
2013-11-9,56.3,43.7,32.2,0.3,-5.5,-13.9,22,13,10,30.17,29.87,13,4,13,0.00
2013-11-10,68.4,52.3,44.2,9.5,-2.8,-9.0,10,10,10,29.94,29.68,24,8,24,0.00
2013-11-11,61.7,49.9,38.1,13.5,1.6,-13.8,15,14,10,30.09,29.84,15,5,15,0.26
2013-11-12,51.3,40.0,30.4,5.6,-6.7,-19.8,29,14,10,30.16,29.79,15,6,15,0.00
2013-11-13,45.2,33.7,25.7,-8.3,-17.3,-23.5,10,10,10,30.24,30.15,9,2,15,0.00
2013-11-14,59.7,42.9,29.7,59.7,34.6,-20.4,100,85,10,30.17,30.05,21,6,21,0.00
2013-11-15,63.7,45.3,34.7,40.8,2.1,-14.2,100,25,10,30.13,30.03,9,2,9,0.00
2013-11-16,59.4,47.6,40.5,31.6,10.6,-12.0,51,25,10,30.20,30.10,6,1,6,0.05
2013-11-17,62.6,56.3,48.9,57.1,46.9,32.0,99,72,52,30.12,29.66,10,2,10,0.00
2013-11-18,72.5,60.1,50.2,61.8,37.7,3.8,100,63,10,29.81,29.49,20,6,20,0.17
2013-11-19,56.3,47.4,41.9,55.4,47.5,41.9,100,100,100,30.48,29.65,20,5,20,0.00
2013-11-20,48.0,44.2,40.8,48.0,44.3,40.8,100,100,100,30.44,29.98,13,2,13,0.00
2013-11-21,59.5,48.5,35.1,59.5,46.7,32.9,100,95,55,30.44,29.66,12,3,12,0.14
2013-11-22,60.6,53.5,46.4,34.0,18.3,-6.9,55,28,10,30.25,29.77,13,3,13,0.01
2013-11-23,54.1,44.5,32.0,27.1,-5.6,-18.6,35,13,10,30.16,29.76,17,7,17,0.15
2013-11-24,34.9,27.5,23.2,-16.3,-22.1,-25.6,10,10,10,30.27,29.87,25,8,25,0.00
2013-11-25,45.9,24.3,19.8,33.3,-10.4,-28.2,100,35,10,30.35,29.96,10,4,10,0.15
2013-11-26,54.3,41.0,31.3,50.5,34.7,-10.2,100,84,11,30.22,29.58,12,4,12,0.19
2013-11-27,61.2,48.6,34.5,60.9,37.5,-16.6,99,74,10,29.63,29.17,24,9,24,0.25
2013-11-28,44.4,33.2,26.8,-9.2,-17.6,-22.7,10,10,10,30.34,29.63,23,7,23,0.00
2013-11-29,48.9,34.5,26.2,-5.5,-16.6,-23.1,10,10,10,30.58,30.33,9,2,9,0.00
2013-11-30,45.3,37.3,27.5,-8.2,-14.4,-22.1,10,10,10,30.58,30.20,10,4,10,0.00
2013-12-1,59.0,43.4,32.7,2.4,-9.7,-18.0,10,10,10,30.20,29.87,7,2,7,0.00
2013-12-2,58.5,41.2,34.7,30.9,-10.6,-16.5,63,11,10,29.88,29.73,6,1,6,0.00
2013-12-3,61.2,44.3,34.5,33.7,11.0,-13.2,67,33,10,29.86,29.72,7,1,7,0.00
2013-12-4,55.6,44.4,34.2,30.4,7.4,-6.9,50,24,10,29.98,29.86,6,1,6,0.00
2013-12-5,62.2,53.4,48.6,52.7,40.4,28.8,92,63,30,30.40,29.80,14,3,14,0.01
2013-12-6,52.7,52.5,52.5,51.6,51.4,50.7,96,96,93,29.81,29.79,6,0,6,0.00
2013-12-7,52.5,52.5,52.5,51.4,51.4,51.4,96,96,96,29.79,29.79,0,0,0,0.00
2013-12-8,32.4,31.9,30.9,32.4,7.6,-16.9,100,37,11,30.41,30.27,2,0,4,0.00
2013-12-9,11828.3,15.3,32.2,99.9,67.6,32.2,100,100,100,29.95,29.85,0,0,0,0.00
2013-12-10,32.2,2.3,32.2,99.9,95.1,32.2,100,100,100,29.85,29.85,0,0,0,0.00
2013-12-11,32.2,32.2,32.2,32.2,32.2,32.2,100,100,100,29.85,29.85,0,0,0,0.00
2013-12-12,32.2,32.2,32.2,32.2,32.2,32.2,100,100,100,29.85,29.85,0,0,0,0.00
2013-12-13,32.2,32.2,32.2,32.2,32.2,32.2,100,100,100,29.85,29.85,0,0,0,0.00
2013-12-16,32.2,32.2,32.2,32.2,32.2,32.2,100,100,100,29.85,29.85,0,0,0,0.00
2013-12-17,32.2,32.2,32.2,32.2,32.2,32.2,100,100,100,29.85,29.85,0,0,0,0.00
2013-12-19,32.2,32.2,32.2,32.2,32.2,32.2,100,100,100,29.94,29.89,0,0,0,0.00
2013-12-20,32.2,32.2,32.2,32.2,32.2,32.2,100,100,100,29.85,29.85,0,0,0,0.00
2013-12-21,70.0,56.3,50.9,65.3,49.5,-2.9,100,84,10,29.83,29.70,163,2,163,0.01
2013-12-22,66.2,57.7,53.8,65.8,33.2,24.1,100,41,28,29.84,29.73,8,1,15,0.04
2013-12-23,59.5,52.6,43.0,56.0,41.8,3.5,88,70,19,29.99,29.73,12,3,12,0.05
2013-12-26,30.0,30.0,30.0,30.0,30.0,30.0,100,100,100,30.15,30.15,2,2,2,0.00
2013-12-27,30.0,30.0,30.0,30.0,30.0,30.0,100,100,100,30.15,30.15,2,2,2,0.00
2013-12-28,48.6,33.4,30.0,48.4,33.4,30.0,100,100,100,30.15,29.94,10,3,11,0.00
2013-12-29,58.3,45.3,40.8,58.0,35.8,-9.2,100,77,11,29.95,29.24,21,5,21,0.09
2013-12-30,50.9,39.1,25.7,13.3,-2.7,-21.7,33,18,11,30.04,29.56,14,4,14,0.00
2013-12-31,43.7,30.5,22.3,-7.8,-17.6,-24.4,14,11,11,30.17,29.81,17,6,17,0.17
2014-1-1,46.6,33.1,22.6,-0.5,-11.1,-19.5,14,14,14,30.28,29.91,15,3,15,0.17
2014-1-2,41.7,34.0,25.2,17.1,-4.2,-14.4,60,22,10,30.08,29.44,21,11,21,0.00